Time;durP1;ratioP1;P1;durP2;ratioP2;P2;SDS_P1;SDS_P2;PMS_P1;PMS_P2;Temp;Humidity;BMP_temperature;BMP_pressure;BME280_temperature;BME280_humidity;BME280_pressure;Samples;Min_cycle;Max_cycle;Signal;HPM_P1;HPM_P2
2021/05/30 00:00:21;;;;;;;15.85;9.80;;;13.90;75.30;;;;;;5117640;28;20044;-84
2021/05/30 00:02:47;;;;;;;15.13;10.43;;;13.80;75.60;;;;;;5099148;28;20036;-85
2021/05/30 00:05:13;;;;;;;14.95;11.07;;;13.80;75.90;;;;;;5117464;28;20024;-84
2021/05/30 00:07:38;;;;;;;14.20;9.55;;;13.80;76.10;;;;;;5091354;28;20115;-84
2021/05/30 00:10:06;;;;;;;18.85;10.70;;;13.80;76.20;;;;;;5078912;28;20032;-85
2021/05/30 00:12:33;;;;;;;13.82;10.70;;;13.70;76.20;;;;;;5065209;28;20077;-84
2021/05/30 00:14:58;;;;;;;18.15;10.73;;;13.70;76.30;;;;;;5098928;28;20032;-84
2021/05/30 00:17:24;;;;;;;13.43;9.77;;;13.70;76.30;;;;;;5098960;28;20035;-84
2021/05/30 00:19:50;;;;;;;15.60;10.32;;;13.70;76.50;;;;;;5098845;28;20422;-84
2021/05/30 00:22:15;;;;;;;15.38;10.15;;;13.70;76.50;;;;;;5081812;28;20031;-84
2021/05/30 00:24:41;;;;;;;14.88;10.13;;;13.60;76.40;;;;;;5082051;28;20024;-84
2021/05/30 00:27:07;;;;;;;10.00;9.00;;;13.60;77.30;;;;;;5116897;28;20098;-84
2021/05/30 00:29:33;;;;;;;13.15;10.35;;;13.60;76.80;;;;;;5081948;28;20507;-84
2021/05/30 00:31:58;;;;;;;14.90;8.95;;;13.60;77.00;;;;;;5081734;28;20393;-84
2021/05/30 00:34:24;;;;;;;14.77;9.63;;;13.50;77.10;;;;;;5098499;28;20032;-84
2021/05/30 00:36:50;;;;;;;15.00;10.25;;;13.50;77.20;;;;;;5106280;28;20056;-84
2021/05/30 00:39:16;;;;;;;13.73;9.98;;;13.50;77.30;;;;;;5080168;28;20027;-84
2021/05/30 00:41:42;;;;;;;14.60;10.00;;;13.40;77.40;;;;;;5062049;28;20028;-84
2021/05/30 00:44:24;;;;;;;16.48;10.32;;;13.40;77.60;;;;;;5078565;28;20028;-84
2021/05/30 00:46:51;;;;;;;13.68;10.68;;;13.40;77.90;;;;;;5095977;28;20054;-84
2021/05/30 00:49:17;;;;;;;12.23;9.48;;;13.30;78.00;;;;;;5061468;28;20058;-84
2021/05/30 00:51:43;;;;;;;17.00;9.63;;;13.20;78.10;;;;;;5095742;28;20536;-84
2021/05/30 00:54:08;;;;;;;13.85;9.82;;;13.20;78.20;;;;;;5098206;28;20028;-84
2021/05/30 00:56:34;;;;;;;12.30;9.68;;;13.20;78.40;;;;;;5081391;28;20080;-85
2021/05/30 00:59:00;;;;;;;11.57;9.13;;;13.20;78.50;;;;;;5098311;28;20376;-84
2021/05/30 01:01:26;;;;;;;14.50;10.10;;;13.20;78.60;;;;;;5081196;28;20034;-84
2021/05/30 01:03:52;;;;;;;12.85;9.18;;;13.20;78.80;;;;;;5089033;28;20024;-84
2021/05/30 01:06:17;;;;;;;12.05;9.20;;;13.10;78.80;;;;;;5091815;28;20035;-85
2021/05/30 01:08:43;;;;;;;14.07;9.93;;;13.10;79.00;;;;;;5097728;28;20047;-85
2021/05/30 01:11:14;;;;;;;13.30;9.30;;;13.10;79.00;;;;;;5116172;28;20053;-84
2021/05/30 01:13:40;;;;;;;15.40;9.98;;;13.10;79.10;;;;;;5079117;28;20039;-85
2021/05/30 01:16:07;;;;;;;11.95;9.07;;;13.10;79.30;;;;;;5115685;28;20050;-84
2021/05/30 01:18:36;;;;;;;14.18;9.80;;;13.10;79.20;;;;;;5096404;28;20532;-85
2021/05/30 01:21:02;;;;;;;14.00;9.43;;;13.10;79.30;;;;;;5095178;28;20115;-85
2021/05/30 01:23:28;;;;;;;13.07;9.77;;;13.00;80.00;;;;;;5079317;28;20048;-84
2021/05/30 01:25:54;;;;;;;13.80;9.45;;;13.00;79.50;;;;;;5061468;28;20036;-84
2021/05/30 01:28:19;;;;;;;13.93;10.05;;;13.00;79.60;;;;;;5077081;28;20042;-84
2021/05/30 01:30:46;;;;;;;14.98;10.98;;;12.90;79.70;;;;;;5077370;28;20036;-84
2021/05/30 01:33:11;;;;;;;15.63;9.18;;;12.90;79.90;;;;;;5090807;28;20028;-85
2021/05/30 01:35:37;;;;;;;14.13;9.48;;;12.90;80.10;;;;;;5078604;28;20039;-84
2021/05/30 01:38:04;;;;;;;13.48;10.02;;;12.80;80.10;;;;;;5093484;28;20101;-84
2021/05/30 01:40:30;;;;;;;19.42;10.70;;;12.80;80.30;;;;;;5098229;28;20507;-84
2021/05/30 01:42:56;;;;;;;13.43;10.18;;;12.80;80.30;;;;;;5097397;28;20019;-84
2021/05/30 01:45:24;;;;;;;14.80;10.98;;;12.80;80.30;;;;;;5068007;28;20496;-84
2021/05/30 01:47:50;;;;;;;13.52;10.63;;;12.70;80.40;;;;;;5077322;28;20032;-84
2021/05/30 01:50:21;;;;;;;18.95;9.95;;;12.70;80.50;;;;;;5114329;28;20047;-85
2021/05/30 01:52:48;;;;;;;13.20;9.35;;;12.60;80.70;;;;;;5115662;28;20031;-84
2021/05/30 01:55:23;;;;;;;17.30;10.95;;;12.60;80.80;;;;;;5108939;28;20093;-84
2021/05/30 01:57:50;;;;;;;13.38;9.82;;;12.60;80.90;;;;;;5076920;28;20113;-84
2021/05/30 02:00:18;;;;;;;16.23;11.75;;;12.50;80.90;;;;;;5093001;28;20111;-84
2021/05/30 02:02:46;;;;;;;15.48;10.55;;;12.50;81.00;;;;;;5094908;28;20130;-84
2021/05/30 02:05:12;;;;;;;13.10;10.02;;;12.50;81.20;;;;;;5087210;28;20028;-85
2021/05/30 02:07:39;;;;;;;15.07;10.95;;;12.50;81.40;;;;;;5096317;28;20023;-84
2021/05/30 02:10:06;;;;;;;16.60;10.82;;;12.40;81.50;;;;;;5081670;28;20114;-84
2021/05/30 02:12:34;;;;;;;14.30;10.15;;;12.40;81.60;;;;;;5078527;28;20032;-84
2021/05/30 02:14:59;;;;;;;17.90;13.10;;;12.30;81.60;;;;;;5080359;28;20035;-84
2021/05/30 02:17:25;;;;;;;13.88;10.38;;;12.30;81.80;;;;;;5079072;28;20032;-84
2021/05/30 02:19:52;;;;;;;16.05;12.25;;;12.30;81.80;;;;;;5114182;28;20143;-84
2021/05/30 02:22:18;;;;;;;15.35;11.75;;;12.30;82.00;;;;;;5075201;28;20504;-85
2021/05/30 02:24:44;;;;;;;17.08;12.18;;;12.30;82.20;;;;;;5092766;28;20508;-85
2021/05/30 02:27:13;;;;;;;18.67;11.75;;;12.20;82.20;;;;;;5095634;28;20051;-84
2021/05/30 02:29:42;;;;;;;16.65;11.13;;;12.20;82.30;;;;;;5069485;28;20027;-84
2021/05/30 02:32:09;;;;;;;14.75;10.93;;;12.10;82.50;;;;;;5114057;28;20541;-84
2021/05/30 02:34:36;;;;;;;16.20;10.32;;;12.10;82.50;;;;;;5093467;28;20019;-85
2021/05/30 02:37:02;;;;;;;16.08;11.88;;;12.10;82.60;;;;;;5079659;28;20020;-85
2021/05/30 02:39:28;;;;;;;17.05;12.68;;;12.10;82.50;;;;;;5077969;28;20038;-84
2021/05/30 02:41:54;;;;;;;19.00;12.85;;;12.00;82.60;;;;;;5095309;28;20451;-84
2021/05/30 02:44:20;;;;;;;14.18;11.10;;;12.00;82.80;;;;;;5071539;28;20114;-84
2021/05/30 02:46:45;;;;;;;15.32;12.55;;;11.90;83.00;;;;;;5111848;28;20081;-84
2021/05/30 02:49:11;;;;;;;19.35;13.27;;;11.90;82.90;;;;;;5077136;28;20059;-84
2021/05/30 02:51:37;;;;;;;17.55;12.32;;;11.90;83.00;;;;;;5113238;28;20061;-85
2021/05/30 02:54:02;;;;;;;17.40;13.50;;;11.90;83.10;;;;;;5077950;28;20032;-84
2021/05/30 02:56:28;;;;;;;15.48;11.90;;;11.90;83.30;;;;;;5072443;28;20603;-84
2021/05/30 02:58:54;;;;;;;18.05;12.07;;;11.80;83.20;;;;;;5092695;28;20032;-84
2021/05/30 03:01:20;;;;;;;19.15;12.93;;;11.80;83.20;;;;;;5090177;28;20460;-84
2021/05/30 03:03:46;;;;;;;14.13;12.23;;;11.80;84.00;;;;;;5063004;28;20032;-84
2021/05/30 03:06:13;;;;;;;16.52;12.00;;;11.80;83.40;;;;;;5066127;28;20120;-84
2021/05/30 03:08:39;;;;;;;22.45;13.20;;;11.80;83.40;;;;;;5081147;28;20035;-85
2021/05/30 03:11:04;;;;;;;19.95;13.77;;;11.70;83.50;;;;;;5078514;28;20102;-85
2021/05/30 03:13:30;;;;;;;22.52;14.95;;;11.70;83.60;;;;;;5081863;28;20480;-84
2021/05/30 03:15:56;;;;;;;19.58;13.40;;;11.70;83.80;;;;;;5108482;28;20050;-84
2021/05/30 03:18:21;;;;;;;17.92;12.63;;;11.60;83.80;;;;;;5064864;28;20035;-84
2021/05/30 03:20:47;;;;;;;20.83;13.82;;;11.70;84.00;;;;;;5075524;28;20025;-84
2021/05/30 03:23:13;;;;;;;17.65;13.18;;;11.70;83.90;;;;;;5042472;28;20028;-84
2021/05/30 03:25:39;;;;;;;18.98;13.98;;;11.70;83.80;;;;;;5110273;28;20098;-84
2021/05/30 03:28:05;;;;;;;19.08;13.80;;;11.70;83.80;;;;;;5078967;28;20701;-84
2021/05/30 03:30:31;;;;;;;20.15;13.75;;;11.70;83.80;;;;;;5093954;28;20039;-84
2021/05/30 03:32:57;;;;;;;21.35;15.13;;;11.70;83.90;;;;;;5085662;28;20118;-84
2021/05/30 03:35:22;;;;;;;20.23;14.45;;;11.70;84.00;;;;;;5075415;28;20107;-84
2021/05/30 03:37:49;;;;;;;20.00;13.90;;;11.70;84.60;;;;;;5092086;28;20469;-84
2021/05/30 03:42:52;;;;;;;17.92;13.65;;;11.60;84.10;;;;;;5114027;28;20058;-83
2021/05/30 03:45:18;;;;;;;20.33;13.77;;;11.60;84.20;;;;;;5096172;28;20497;-84
2021/05/30 03:47:44;;;;;;;19.75;14.05;;;11.50;84.20;;;;;;5095741;28;20095;-84
2021/05/30 03:50:10;;;;;;;20.92;15.18;;;11.50;84.30;;;;;;5113545;28;20135;-84
2021/05/30 03:52:35;;;;;;;19.30;14.88;;;11.50;84.30;;;;;;5078662;28;20063;-84
2021/05/30 03:55:01;;;;;;;20.52;14.80;;;11.50;84.30;;;;;;5095341;28;20094;-84
2021/05/30 03:57:27;;;;;;;19.13;14.55;;;11.50;84.40;;;;;;5078307;28;20102;-85
2021/05/30 03:59:52;;;;;;;18.95;14.88;;;11.50;84.40;;;;;;5095893;28;20031;-84
2021/05/30 04:02:18;;;;;;;20.27;15.60;;;11.50;84.40;;;;;;5095328;28;20023;-84
2021/05/30 04:04:43;;;;;;;20.40;15.05;;;11.50;84.50;;;;;;5095508;28;20028;-84
2021/05/30 04:07:09;;;;;;;22.98;14.80;;;11.50;84.60;;;;;;5077982;28;20020;-84
2021/05/30 04:09:35;;;;;;;22.13;15.93;;;11.50;84.80;;;;;;5078463;28;20032;-84
2021/05/30 04:12:00;;;;;;;19.73;14.40;;;11.40;85.40;;;;;;5057192;28;20026;-84
2021/05/30 04:14:26;;;;;;;25.52;17.25;;;11.40;84.80;;;;;;5075050;28;20531;-84
2021/05/30 04:16:51;;;;;;;25.58;17.10;;;11.50;84.90;;;;;;5065827;28;20093;-84
2021/05/30 04:19:17;;;;;;;24.67;17.25;;;11.40;84.90;;;;;;5095176;28;20034;-84
2021/05/30 04:21:43;;;;;;;22.38;16.40;;;11.40;85.00;;;;;;5113324;28;20106;-84
2021/05/30 04:24:08;;;;;;;25.48;18.08;;;11.50;85.00;;;;;;5085729;28;20032;-84
2021/05/30 04:26:34;;;;;;;25.20;17.15;;;11.40;84.90;;;;;;5058574;28;20481;-84
2021/05/30 04:29:00;;;;;;;27.60;17.75;;;11.40;85.00;;;;;;5064165;28;20032;-84
2021/05/30 04:31:26;;;;;;;24.27;15.70;;;11.40;85.20;;;;;;5078236;28;20515;-84
2021/05/30 04:33:51;;;;;;;25.33;17.45;;;11.40;85.20;;;;;;5101170;28;20051;-84
2021/05/30 04:36:20;;;;;;;25.30;17.48;;;11.50;85.30;;;;;;5081176;28;20468;-84
2021/05/30 04:38:45;;;;;;;27.45;18.15;;;11.50;85.20;;;;;;5084160;28;20032;-84
2021/05/30 04:41:11;;;;;;;22.40;16.98;;;11.50;85.30;;;;;;5078926;28;20504;-84
2021/05/30 04:43:36;;;;;;;22.90;17.98;;;11.50;85.30;;;;;;5081747;28;20020;-85
2021/05/30 04:46:02;;;;;;;27.17;18.75;;;11.50;85.40;;;;;;5098460;28;20540;-84
2021/05/30 04:48:28;;;;;;;26.65;18.25;;;11.50;85.50;;;;;;5098276;28;20035;-84
2021/05/30 04:51:05;;;;;;;26.67;18.65;;;11.40;85.60;;;;;;5081320;28;20060;-84
2021/05/30 04:53:39;;;;;;;28.42;17.55;;;11.50;85.80;;;;;;5083874;28;20430;-84
2021/05/30 04:56:05;;;;;;;25.88;18.13;;;11.50;85.80;;;;;;5077828;28;20131;-85
2021/05/30 04:58:32;;;;;;;26.98;18.95;;;11.50;85.70;;;;;;5095983;28;20042;-85
2021/05/30 05:00:58;;;;;;;25.38;18.27;;;11.50;85.70;;;;;;5064890;28;20050;-84
2021/05/30 05:03:24;;;;;;;28.92;17.88;;;11.50;85.80;;;;;;5094895;28;20028;-84
2021/05/30 05:05:53;;;;;;;27.55;19.02;;;11.60;85.90;;;;;;5097929;28;20043;-84
2021/05/30 05:08:20;;;;;;;24.65;18.17;;;11.60;85.90;;;;;;5081154;28;20031;-84
2021/05/30 05:10:46;;;;;;;27.77;19.00;;;11.70;85.80;;;;;;5077214;28;20049;-84
2021/05/30 05:13:13;;;;;;;24.55;18.48;;;11.70;85.60;;;;;;5061127;28;20458;-84
2021/05/30 05:15:39;;;;;;;29.42;19.20;;;11.80;85.40;;;;;;5095689;28;20052;-84
2021/05/30 05:18:15;;;;;;;25.38;18.38;;;11.90;85.50;;;;;;5068950;28;20503;-84
2021/05/30 05:20:41;;;;;;;28.27;18.85;;;11.90;85.50;;;;;;5077658;28;20028;-84
2021/05/30 05:23:07;;;;;;;28.38;20.13;;;11.90;85.50;;;;;;5095528;28;20028;-85
2021/05/30 05:25:35;;;;;;;22.88;16.95;;;11.90;85.50;;;;;;5077180;28;20051;-84
2021/05/30 05:28:04;;;;;;;30.85;19.80;;;11.90;85.40;;;;;;5097390;28;20032;-85
2021/05/30 05:30:30;;;;;;;;;;;12.00;85.40;;;;;;5098130;28;20110;-87
2021/05/30 05:32:59;;;;;;;25.85;19.35;;;12.10;85.10;;;;;;5113280;28;19954;-87
2021/05/30 05:35:27;;;;;;;28.80;19.13;;;12.10;85.10;;;;;;5096807;28;20023;-87
2021/05/30 05:38:01;;;;;;;28.77;19.15;;;12.20;85.10;;;;;;5096406;28;20019;-86
2021/05/30 05:40:28;;;;;;;26.73;18.02;;;12.20;84.80;;;;;;5096677;28;20119;-87
2021/05/30 05:42:54;;;;;;;24.55;18.42;;;12.20;84.80;;;;;;5097378;28;20024;-87
2021/05/30 05:45:22;;;;;;;28.20;19.20;;;12.30;84.80;;;;;;5115487;28;20047;-86
2021/05/30 05:47:48;;;;;;;24.08;18.20;;;12.40;84.60;;;;;;5080552;28;20036;-87
2021/05/30 05:50:15;;;;;;;25.30;18.42;;;12.40;84.40;;;;;;5076924;28;20056;-87
2021/05/30 05:52:45;;;;;;;32.88;20.17;;;12.50;84.10;;;;;;5094965;28;20486;-87
2021/05/30 05:55:11;;;;;;;29.63;19.02;;;12.60;84.10;;;;;;5093827;28;20036;-87
2021/05/30 05:57:38;;;;;;;25.98;18.73;;;12.60;84.00;;;;;;5093662;28;20016;-87
2021/05/30 06:00:07;;;;;;;28.60;18.85;;;12.70;83.80;;;;;;5094708;28;20069;-87
2021/05/30 06:02:32;;;;;;;26.27;19.57;;;12.80;83.60;;;;;;5093593;28;20037;-87
2021/05/30 06:04:58;;;;;;;34.03;19.38;;;12.80;83.30;;;;;;5093467;28;20028;-87
2021/05/30 06:07:24;;;;;;;26.58;19.63;;;12.90;83.30;;;;;;5094817;28;20028;-87
2021/05/30 06:09:51;;;;;;;26.88;18.60;;;13.00;83.10;;;;;;5094675;28;20107;-86
2021/05/30 06:12:16;;;;;;;26.90;19.70;;;13.10;83.10;;;;;;5076427;28;20032;-87
2021/05/30 06:14:42;;;;;;;26.48;19.63;;;13.20;82.60;;;;;;5093169;28;20028;-86
2021/05/30 06:17:08;;;;;;;28.92;18.35;;;13.30;82.50;;;;;;5084015;28;20090;-87
2021/05/30 06:19:34;;;;;;;27.02;18.95;;;13.30;82.30;;;;;;5093300;28;20481;-86
2021/05/30 06:22:01;;;;;;;27.45;19.40;;;13.40;82.10;;;;;;5093079;28;20038;-87
2021/05/30 06:24:26;;;;;;;26.98;18.55;;;13.50;81.60;;;;;;5075185;28;20431;-86
2021/05/30 06:26:56;;;;;;;22.92;18.55;;;13.60;81.40;;;;;;5056477;28;20032;-88
2021/05/30 06:29:22;;;;;;;28.33;21.00;;;13.70;81.10;;;;;;5072958;28;20140;-88
2021/05/30 06:31:48;;;;;;;25.52;18.48;;;13.80;80.70;;;;;;5073054;28;20103;-87
2021/05/30 06:34:16;;;;;;;27.90;19.55;;;13.80;80.60;;;;;;5074051;28;20532;-88
2021/05/30 06:36:43;;;;;;;26.85;20.13;;;14.00;80.30;;;;;;5059796;28;20032;-87
2021/05/30 06:39:10;;;;;;;28.60;19.08;;;14.10;79.90;;;;;;5072244;28;20025;-87
2021/05/30 06:41:36;;;;;;;24.33;18.50;;;14.20;79.40;;;;;;5072658;28;20478;-85
2021/05/30 06:44:02;;;;;;;25.70;18.70;;;14.30;79.30;;;;;;5073712;28;20025;-86
2021/05/30 06:46:28;;;;;;;24.10;18.23;;;14.50;78.70;;;;;;5072457;28;20474;-85
2021/05/30 06:48:54;;;;;;;24.52;17.45;;;14.70;78.30;;;;;;5073862;28;20104;-85
2021/05/30 06:51:22;;;;;;;24.20;17.92;;;14.90;77.50;;;;;;5055087;28;20048;-86
2021/05/30 06:53:49;;;;;;;23.77;18.30;;;15.20;76.90;;;;;;5076556;28;20028;-85
2021/05/30 06:56:15;;;;;;;22.70;17.35;;;15.30;76.30;;;;;;5093400;28;20020;-85
2021/05/30 06:58:41;;;;;;;25.15;17.77;;;15.50;75.80;;;;;;5093713;28;20089;-85
2021/05/30 07:01:07;;;;;;;22.60;17.85;;;15.60;74.70;;;;;;5093810;28;20528;-85
2021/05/30 07:03:33;;;;;;;23.85;18.08;;;15.70;74.30;;;;;;5091401;28;20016;-85
2021/05/30 07:05:59;;;;;;;25.15;18.88;;;15.90;74.40;;;;;;5092293;28;20544;-86
2021/05/30 07:08:25;;;;;;;24.17;18.38;;;16.00;73.60;;;;;;5058363;28;20029;-86
2021/05/30 07:10:54;;;;;;;23.38;17.33;;;16.10;72.80;;;;;;5057615;28;20128;-86
2021/05/30 07:13:21;;;;;;;23.50;17.95;;;16.20;72.00;;;;;;5077450;28;20020;-86
2021/05/30 07:15:51;;;;;;;24.88;18.35;;;16.20;71.50;;;;;;5092474;28;20036;-86
2021/05/30 07:18:17;;;;;;;20.95;16.58;;;16.30;71.70;;;;;;5093508;28;20024;-86
2021/05/30 07:20:44;;;;;;;18.77;15.55;;;16.40;71.40;;;;;;5093370;28;20024;-85
2021/05/30 07:23:10;;;;;;;23.85;15.15;;;16.40;70.20;;;;;;5092145;28;20508;-85
2021/05/30 07:25:36;;;;;;;22.50;16.05;;;16.60;69.80;;;;;;5084992;28;20044;-86
2021/05/30 07:28:03;;;;;;;22.77;15.70;;;16.70;68.60;;;;;;5071902;28;20513;-85
2021/05/30 07:30:28;;;;;;;23.30;15.27;;;16.70;68.40;;;;;;5073551;28;20082;-86
2021/05/30 07:32:54;;;;;;;18.92;14.18;;;16.80;68.30;;;;;;5093362;28;20485;-85
2021/05/30 07:35:20;;;;;;;17.92;13.48;;;17.00;68.10;;;;;;5074030;28;20024;-85
2021/05/30 07:37:45;;;;;;;18.52;13.27;;;17.10;67.90;;;;;;5080040;28;20086;-85
2021/05/30 07:40:11;;;;;;;20.25;14.20;;;17.30;67.40;;;;;;5082154;28;20427;-86
2021/05/30 07:42:37;;;;;;;16.65;12.77;;;17.50;66.40;;;;;;5082199;28;20103;-87
2021/05/30 07:45:04;;;;;;;23.65;14.70;;;17.50;65.20;;;;;;5081863;28;20120;-85
2021/05/30 07:47:30;;;;;;;17.38;13.73;;;17.60;65.20;;;;;;5082252;28;20075;-86
2021/05/30 07:49:56;;;;;;;16.42;12.60;;;17.50;65.40;;;;;;5080470;28;20048;-86
2021/05/30 07:52:22;;;;;;;15.38;11.05;;;17.70;65.80;;;;;;5090713;28;20036;-86
2021/05/30 07:54:47;;;;;;;20.17;12.10;;;17.90;64.80;;;;;;5092563;28;20020;-87
2021/05/30 07:57:13;;;;;;;14.75;11.27;;;18.00;63.80;;;;;;5091201;28;20035;-86
2021/05/30 07:59:39;;;;;;;15.32;10.07;;;18.10;62.60;;;;;;5091694;28;20035;-85
2021/05/30 08:02:05;;;;;;;12.35;9.32;;;18.30;62.40;;;;;;5071541;28;20020;-85
2021/05/30 08:04:30;;;;;;;13.18;9.85;;;18.40;61.10;;;;;;5091469;28;20536;-85
2021/05/30 08:06:56;;;;;;;16.27;11.07;;;18.50;60.90;;;;;;5061833;28;20028;-85
2021/05/30 08:09:22;;;;;;;17.23;11.38;;;18.70;60.60;;;;;;5053066;28;20061;-85
2021/05/30 08:11:48;;;;;;;14.77;10.63;;;18.80;59.70;;;;;;5097082;28;20103;-82
2021/05/30 08:14:14;;;;;;;12.48;10.93;;;18.90;59.70;;;;;;5099113;28;20062;-81
2021/05/30 08:16:41;;;;;;;13.30;10.90;;;18.90;59.00;;;;;;5068961;28;20032;-81
2021/05/30 08:19:07;;;;;;;13.50;10.80;;;19.00;59.70;;;;;;5092166;28;20028;-81
2021/05/30 08:21:32;;;;;;;14.50;11.15;;;19.10;58.80;;;;;;5086894;28;20035;-81
2021/05/30 08:23:58;;;;;;;13.18;10.30;;;19.10;58.50;;;;;;5084504;28;20095;-81
2021/05/30 08:26:24;;;;;;;15.40;11.32;;;19.10;57.50;;;;;;5089340;28;20079;-81
2021/05/30 08:28:50;;;;;;;14.88;11.48;;;19.00;57.80;;;;;;5094452;28;20077;-80
2021/05/30 08:31:16;;;;;;;14.68;10.15;;;19.10;58.80;;;;;;5093113;28;20088;-80
2021/05/30 08:33:42;;;;;;;14.55;8.55;;;19.30;58.40;;;;;;5098467;28;20048;-81
2021/05/30 08:36:07;;;;;;;9.40;6.68;;;19.40;57.40;;;;;;5074255;28;20032;-80
2021/05/30 08:38:33;;;;;;;9.52;7.10;;;19.60;56.00;;;;;;5071995;28;20082;-80
2021/05/30 08:40:59;;;;;;;6.93;5.57;;;19.70;54.20;;;;;;5095596;28;20063;-80
2021/05/30 08:43:25;;;;;;;8.85;6.28;;;19.90;54.00;;;;;;5094981;28;20108;-82
2021/05/30 08:45:52;;;;;;;7.53;6.18;;;19.90;53.70;;;;;;5088243;28;20033;-82
2021/05/30 08:48:17;;;;;;;8.80;6.40;;;19.90;51.80;;;;;;5089273;28;20024;-81
2021/05/30 08:50:43;;;;;;;12.18;6.78;;;19.90;51.80;;;;;;5085100;28;20408;-81
2021/05/30 08:53:09;;;;;;;8.68;6.53;;;20.00;52.90;;;;;;5044191;28;20033;-81
2021/05/30 08:55:37;;;;;;;6.85;5.40;;;20.20;52.70;;;;;;5093169;28;20435;-81
2021/05/30 08:58:03;;;;;;;11.75;6.47;;;20.30;50.20;;;;;;5077714;28;20032;-80
2021/05/30 09:00:32;;;;;;;7.95;5.68;;;20.40;50.30;;;;;;5080821;28;20025;-80
2021/05/30 09:03:11;;;;;;;7.90;5.88;;;20.40;51.10;;;;;;5100052;28;20024;-80
2021/05/30 09:05:38;;;;;;;6.43;5.40;;;20.50;51.20;;;;;;5081410;28;20063;-80
2021/05/30 09:08:04;;;;;;;8.05;5.95;;;20.60;50.30;;;;;;5080651;28;20036;-80
2021/05/30 09:10:30;;;;;;;9.20;6.68;;;20.70;50.40;;;;;;5089350;28;20028;-79
2021/05/30 09:13:15;;;;;;;7.18;5.97;;;20.70;49.30;;;;;;5083575;28;20043;-79
2021/05/30 09:18:29;;;;;;;7.40;5.43;;;20.90;49.60;;;;;;5084657;28;20020;-80
2021/05/30 09:20:58;;;;;;;5.28;4.75;;;21.00;49.30;;;;;;5083174;28;20028;-80
2021/05/30 09:23:34;;;;;;;8.57;5.45;;;21.10;48.70;;;;;;5078686;28;20029;-81
2021/05/30 09:26:09;;;;;;;6.57;4.82;;;21.20;48.40;;;;;;5083564;28;20480;-79
2021/05/30 09:28:35;;;;;;;6.45;4.82;;;21.40;49.20;;;;;;5087132;28;20568;-79
2021/05/30 09:31:02;;;;;;;7.35;5.03;;;21.60;48.40;;;;;;5087955;28;20036;-79
2021/05/30 09:33:34;;;;;;;6.82;4.97;;;21.70;48.10;;;;;;5084050;28;20111;-79
2021/05/30 09:36:03;;;;;;;7.70;4.78;;;21.80;47.40;;;;;;5085555;28;20033;-79
2021/05/30 09:38:38;;;;;;;6.85;4.82;;;21.80;46.00;;;;;;5094233;28;20024;-79
2021/05/30 09:41:12;;;;;;;8.15;5.00;;;21.80;46.10;;;;;;5081771;28;20027;-78
2021/05/30 09:43:49;;;;;;;7.43;5.03;;;21.80;45.90;;;;;;5094919;28;20027;-80
2021/05/30 09:46:16;;;;;;;6.97;4.60;;;21.90;46.50;;;;;;5094599;28;20024;-78
2021/05/30 09:48:43;;;;;;;6.50;5.20;;;21.90;45.80;;;;;;5094609;28;20376;-78
2021/05/30 09:51:32;;;;;;;8.13;4.30;;;21.90;45.30;;;;;;5093138;28;20373;-78
2021/05/30 09:53:59;;;;;;;5.97;4.80;;;21.90;46.30;;;;;;5093616;28;20036;-77
2021/05/30 09:56:53;;;;;;;5.68;4.60;;;22.10;45.90;;;;;;5094709;28;20020;-78
2021/05/30 09:59:20;;;;;;;7.25;4.55;;;22.20;46.20;;;;;;5091400;28;20094;-82
2021/05/30 10:01:52;;;;;;;6.50;4.85;;;22.40;44.60;;;;;;5093345;28;20028;-83
2021/05/30 10:04:18;;;;;;;5.90;4.53;;;22.30;44.10;;;;;;5094652;28;20016;-83
2021/05/30 10:06:44;;;;;;;4.32;3.92;;;22.30;44.60;;;;;;5052968;28;20115;-83
2021/05/30 10:09:10;;;;;;;6.35;4.53;;;22.50;44.90;;;;;;5080081;28;20058;-77
2021/05/30 10:11:37;;;;;;;3.22;2.90;;;22.70;43.90;;;;;;5094056;28;20039;-79
2021/05/30 10:14:04;;;;;;;3.60;3.30;;;22.80;42.40;;;;;;5080939;28;20028;-78
2021/05/30 10:16:32;;;;;;;5.43;3.40;;;22.90;42.30;;;;;;5089696;28;20032;-77
2021/05/30 10:19:10;;;;;;;3.90;3.20;;;23.00;42.60;;;;;;5085184;28;20376;-77
2021/05/30 10:22:00;;;;;;;7.88;3.10;;;23.10;42.40;;;;;;5093107;28;20136;-77
2021/05/30 10:24:27;;;;;;;4.30;3.90;;;23.20;42.70;;;;;;5088808;28;20037;-77
2021/05/30 10:27:11;;;;;;;4.78;3.22;;;23.20;42.30;;;;;;5081527;28;20025;-77
2021/05/30 10:29:37;;;;;;;6.18;3.60;;;23.40;41.60;;;;;;5074345;28;20020;-78
2021/05/30 10:32:17;;;;;;;4.95;3.15;;;23.40;41.90;;;;;;5094271;28;20020;-78
2021/05/30 10:35:08;;;;;;;5.53;3.03;;;23.50;40.80;;;;;;5092190;28;20032;-77
2021/05/30 10:37:40;;;;;;;4.40;3.10;;;23.60;40.70;;;;;;5090934;28;20023;-77
2021/05/30 10:40:30;;;;;;;6.50;3.38;;;23.70;40.70;;;;;;5092585;28;20058;-77
2021/05/30 10:43:11;;;;;;;6.45;2.75;;;23.80;39.80;;;;;;5085592;28;20036;-77
2021/05/30 10:45:42;;;;;;;4.07;2.45;;;23.80;40.00;;;;;;5074459;28;20070;-77
2021/05/30 10:48:12;;;;;;;5.25;2.70;;;23.80;39.60;;;;;;5093371;28;20035;-77
2021/05/30 10:50:40;;;;;;;8.93;2.90;;;23.90;38.80;;;;;;5072398;28;20063;-77
2021/05/30 10:53:29;;;;;;;3.22;2.30;;;24.00;39.50;;;;;;5078402;28;20411;-77
2021/05/30 10:56:12;;;;;;;2.88;2.40;;;24.00;40.10;;;;;;5092177;28;20118;-77
2021/05/30 10:58:38;;;;;;;3.47;2.50;;;24.10;39.10;;;;;;5093883;28;20506;-77
2021/05/30 11:01:04;;;;;;;2.25;1.88;;;24.00;39.30;;;;;;5062659;28;20059;-77
2021/05/30 11:03:29;;;;;;;4.10;1.90;;;24.00;37.80;;;;;;5080356;28;20484;-77
2021/05/30 11:05:57;;;;;;;3.17;2.20;;;24.00;37.50;;;;;;5092217;28;20036;-77
2021/05/30 11:08:32;;;;;;;4.85;2.20;;;24.00;36.70;;;;;;5088225;28;20032;-78
2021/05/30 11:11:20;;;;;;;2.28;1.90;;;24.00;37.40;;;;;;5093613;28;20024;-77
2021/05/30 11:13:56;;;;;;;;;;;24.00;37.40;;;;;;5082381;28;20031;-77
2021/05/30 11:16:25;;;;;;;4.20;2.20;;;24.00;37.00;;;;;;5074791;28;19920;-77
2021/05/30 11:19:00;;;;;;;2.92;2.10;;;23.90;37.00;;;;;;5093512;28;20024;-77
2021/05/30 11:21:38;;;;;;;2.63;2.03;;;23.90;37.10;;;;;;5093390;28;20469;-77
2021/05/30 11:24:07;;;;;;;3.45;1.95;;;23.90;36.30;;;;;;5093462;28;20031;-77
2021/05/30 11:26:33;;;;;;;4.93;2.53;;;24.00;37.70;;;;;;5093349;28;20085;-77
2021/05/30 11:28:59;;;;;;;4.28;2.03;;;24.00;36.20;;;;;;5093651;28;20032;-77
2021/05/30 11:31:26;;;;;;;3.72;2.00;;;24.10;36.50;;;;;;5058727;28;20028;-84
2021/05/30 11:34:01;;;;;;;2.63;2.00;;;24.20;36.50;;;;;;5091613;28;20400;-83
2021/05/30 11:36:35;;;;;;;2.38;1.60;;;24.30;37.10;;;;;;5093570;28;20024;-84
2021/05/30 11:39:15;;;;;;;5.68;1.65;;;24.50;35.30;;;;;;5097683;28;20029;-83
2021/05/30 11:41:53;;;;;;;2.25;2.05;;;24.60;36.60;;;;;;5097641;28;20020;-83
2021/05/30 11:44:25;;;;;;;2.63;1.80;;;24.70;35.30;;;;;;5097452;28;20016;-84
2021/05/30 11:46:57;;;;;;;5.05;1.80;;;24.80;35.40;;;;;;5095988;28;20024;-85
2021/05/30 11:49:28;;;;;;;3.90;1.65;;;24.80;35.90;;;;;;5098496;28;20143;-85
2021/05/30 11:52:03;;;;;;;4.20;1.85;;;25.00;34.60;;;;;;5091983;28;20064;-85
2021/05/30 11:54:29;;;;;;;2.95;2.05;;;25.10;34.50;;;;;;5097350;28;20035;-85
2021/05/30 11:56:58;;;;;;;4.53;1.90;;;25.20;34.60;;;;;;5097338;28;20020;-85
2021/05/30 11:59:29;;;;;;;2.78;1.65;;;25.20;34.30;;;;;;5078948;28;20024;-85
2021/05/30 12:01:55;;;;;;;2.25;1.77;;;25.20;34.10;;;;;;5079033;28;20078;-85
2021/05/30 12:04:24;;;;;;;2.28;1.67;;;25.10;34.30;;;;;;5097197;28;20032;-85
2021/05/30 12:06:52;;;;;;;3.47;1.80;;;25.20;34.50;;;;;;5113293;28;20020;-85
2021/05/30 12:09:18;;;;;;;2.15;1.92;;;25.20;34.70;;;;;;5099211;28;20028;-85
2021/05/30 12:11:44;;;;;;;2.58;1.73;;;25.20;35.50;;;;;;5099425;28;20035;-85
2021/05/30 12:14:09;;;;;;;1.55;1.40;;;25.30;35.50;;;;;;5082487;28;20028;-85
2021/05/30 12:16:36;;;;;;;2.00;1.50;;;25.40;35.10;;;;;;5101655;28;20038;-85
2021/05/30 12:19:04;;;;;;;2.00;1.35;;;25.50;34.10;;;;;;5120847;28;20464;-85
2021/05/30 12:21:46;;;;;;;2.90;1.35;;;25.50;33.40;;;;;;5104556;28;20391;-84
2021/05/30 12:24:16;;;;;;;1.52;1.33;;;25.60;33.90;;;;;;5104144;28;20066;-85
2021/05/30 12:26:44;;;;;;;2.10;1.20;;;25.80;33.80;;;;;;5123715;28;20024;-85
2021/05/30 12:29:10;;;;;;;4.33;1.50;;;25.80;33.60;;;;;;5102856;28;20106;-85
2021/05/30 12:31:36;;;;;;;2.35;1.58;;;25.80;32.30;;;;;;5088235;28;20498;-84
2021/05/30 12:34:04;;;;;;;4.40;1.70;;;25.70;33.10;;;;;;5102495;28;20028;-85
2021/05/30 12:36:48;;;;;;;2.33;1.70;;;25.70;33.10;;;;;;5121538;28;20016;-86
2021/05/30 12:39:21;;;;;;;2.88;1.23;;;25.70;33.60;;;;;;5125861;28;20035;-84
2021/05/30 12:42:09;;;;;;;2.95;1.42;;;25.60;32.30;;;;;;5119787;28;20012;-83
2021/05/30 12:44:39;;;;;;;4.50;1.42;;;25.60;31.90;;;;;;5117656;28;20020;-84